Terminal Aerodrome Forecast
Issued by NWS Central Illinois

Home | Current Version | Previous Version | Text Only | Print | Product List | Glossary On
Versions: 1 2 3 4 5 6 7 8 9 10 11 12 13 14 15 16 17 18 19 20 21 22 23 24 25 26 27 28 29
000
FTUS43 KILX 290308 AAA
TAFSPI
TAF AMD
KSPI 290308Z 2903/2924 12009KT 5SM BR BKN012 OVC020
     FM290500 08009KT 4SM BR VCSH OVC008
     FM290800 06015KT 3SM -SHRA BR VCTS OVC007CB
     FM291400 06013G19KT 3SM TSRA BR OVC004CB
     FM292000 10013G21KT 3SM SHRA BR VCTS BKN007 OVC015CB=

USA.gov is the U.S. government's official web portal to all federal, state and local government web resources and services.